createdAt,value
2022-11-23T00:01:21.506Z,25.12
2022-11-23T00:03:51.277Z,18.62
2022-11-23T00:06:19.223Z,24.02
2022-11-23T00:08:46.544Z,18.15
2022-11-23T00:11:14.453Z,18.12
2022-11-23T00:13:43.822Z,21.98
2022-11-23T00:16:19.911Z,19.48
2022-11-23T00:18:48.144Z,18.48
2022-11-23T00:21:17.155Z,18.37
2022-11-23T00:23:45.356Z,20.17
2022-11-23T00:26:13.971Z,17.67
2022-11-23T00:28:42.165Z,20.48
2022-11-23T00:31:11.965Z,20.05
2022-11-23T00:33:39.981Z,20.23
2022-11-23T00:36:10.901Z,17.55
2022-11-23T00:38:38.645Z,20.25
2022-11-23T00:41:12.988Z,16.60
2022-11-23T00:43:40.648Z,19.50
2022-11-23T00:46:21.193Z,19.55
2022-11-23T00:48:50.661Z,18.83
2022-11-23T00:51:21.042Z,17.30
2022-11-23T00:53:49.861Z,19.27
2022-11-23T00:56:18.345Z,18.10
2022-11-23T00:58:52.945Z,20.33
2022-11-23T01:01:22.461Z,20.00
2022-11-23T01:03:55.891Z,18.58
2022-11-23T01:06:28.264Z,17.20
2022-11-23T01:08:58.196Z,16.05
2022-11-23T01:11:28.369Z,16.83
2022-11-23T01:13:56.110Z,15.98
2022-11-23T01:16:27.571Z,14.40
2022-11-23T01:18:59.344Z,15.82
2022-11-23T01:21:28.961Z,19.80
2022-11-23T01:23:56.460Z,17.55
2022-11-23T01:26:23.936Z,16.83
2022-11-23T01:28:51.671Z,16.92
2022-11-23T01:31:22.732Z,18.12
2022-11-23T01:33:54.715Z,16.62
2022-11-23T01:36:24.327Z,16.12
2022-11-23T01:38:52.245Z,15.63
2022-11-23T01:41:24.352Z,14.20
2022-11-23T01:43:52.058Z,14.87
2022-11-23T01:46:19.912Z,17.98
2022-11-23T01:48:51.089Z,15.93
2022-11-23T01:51:22.274Z,14.98
2022-11-23T01:53:52.793Z,12.63
2022-11-23T01:56:23.693Z,12.55
2022-11-23T01:58:53.073Z,15.00
2022-11-23T02:01:20.812Z,16.20
2022-11-23T02:03:49.244Z,16.45
2022-11-23T02:06:18.728Z,17.30
2022-11-23T02:08:47.361Z,15.48
2022-11-23T02:11:16.552Z,13.10
2022-11-23T02:13:47.849Z,13.20
2022-11-23T02:16:15.241Z,13.05
2022-11-23T02:18:45.234Z,12.20
2022-11-23T02:21:13.116Z,13.15
2022-11-23T02:23:57.583Z,14.35
2022-11-23T02:26:31.166Z,12.40
2022-11-23T02:29:20.377Z,13.88
2022-11-23T02:32:06.744Z,13.57
2022-11-23T02:34:34.074Z,14.30
2022-11-23T02:37:01.722Z,13.60
2022-11-23T02:39:36.930Z,16.20
2022-11-23T02:42:05.351Z,13.98
2022-11-23T02:44:55.258Z,14.00
2022-11-23T02:47:22.920Z,14.52
2022-11-23T02:49:50.265Z,15.85
2022-11-23T02:52:19.129Z,15.85
2022-11-23T02:54:46.810Z,13.43
2022-11-23T02:57:14.723Z,13.73
2022-11-23T02:59:45.003Z,14.48
2022-11-23T03:02:12.895Z,14.85
2022-11-23T03:04:40.670Z,13.45
2022-11-23T03:07:08.046Z,12.85
2022-11-23T03:09:35.873Z,11.95
2022-11-23T03:12:03.303Z,13.60
2022-11-23T03:14:30.717Z,12.63
2022-11-23T03:16:59.898Z,14.82
2022-11-23T03:19:27.668Z,14.45
2022-11-23T03:21:55.082Z,14.65
2022-11-23T03:24:24.733Z,13.93
2022-11-23T03:26:52.673Z,15.00
2022-11-23T03:29:20.230Z,17.20
2022-11-23T03:31:47.988Z,13.13
2022-11-23T03:34:15.725Z,13.55
2022-11-23T03:36:44.070Z,15.20
2022-11-23T03:39:12.123Z,14.32
2022-11-23T03:41:40.664Z,13.65
2022-11-23T03:44:08.915Z,14.00
2022-11-23T03:46:36.483Z,13.95
2022-11-23T03:49:03.881Z,12.18
2022-11-23T03:51:31.240Z,11.40
2022-11-23T03:53:58.814Z,11.55
2022-11-23T03:56:26.138Z,13.05
2022-11-23T03:58:53.608Z,12.35
2022-11-23T04:01:21.738Z,12.35
2022-11-23T04:03:50.321Z,11.40
2022-11-23T04:06:18.417Z,14.68
2022-11-23T04:08:46.447Z,12.05
2022-11-23T04:11:15.232Z,11.98
2022-11-23T04:13:42.721Z,12.00
2022-11-23T04:16:10.118Z,11.18
2022-11-23T04:18:37.803Z,12.90
2022-11-23T04:21:05.369Z,10.38
2022-11-23T04:23:32.688Z,11.18
2022-11-23T04:26:00.693Z,12.63
2022-11-23T04:28:29.267Z,11.02
2022-11-23T04:30:58.790Z,12.50
2022-11-23T04:33:29.111Z,15.63
2022-11-23T04:35:59.118Z,10.20
2022-11-23T04:38:26.830Z,10.25
2022-11-23T04:40:54.535Z,12.10
2022-11-23T04:43:21.898Z,11.20
2022-11-23T04:45:52.696Z,10.48
2022-11-23T04:48:21.226Z,12.35
2022-11-23T04:50:50.855Z,11.82
2022-11-23T04:53:23.558Z,14.18
2022-11-23T04:55:51.264Z,11.23
2022-11-23T04:58:18.710Z,14.02
2022-11-23T05:00:50.540Z,10.07
2022-11-23T05:03:18.561Z,10.05
2022-11-23T05:05:46.120Z,9.48
2022-11-23T05:08:13.909Z,9.45
2022-11-23T05:10:43.900Z,9.23
2022-11-23T05:13:11.526Z,11.12
2022-11-23T05:15:38.880Z,9.82
2022-11-23T05:18:07.201Z,9.10
2022-11-23T05:20:34.748Z,10.88
2022-11-23T05:23:02.089Z,10.13
2022-11-23T05:25:30.102Z,12.05
2022-11-23T05:28:00.997Z,9.07
2022-11-23T05:30:31.843Z,8.93
2022-11-23T05:33:02.988Z,9.40
2022-11-23T05:35:30.867Z,11.20
2022-11-23T05:37:58.622Z,8.60
2022-11-23T05:40:26.600Z,9.38
2022-11-23T05:42:58.483Z,7.32
2022-11-23T05:45:27.053Z,8.85
2022-11-23T05:47:56.743Z,8.48
2022-11-23T05:50:26.709Z,9.50
2022-11-23T05:53:09.019Z,8.82
2022-11-23T05:55:37.049Z,8.50
2022-11-23T05:58:04.522Z,9.27
2022-11-23T06:00:32.190Z,9.90
2022-11-23T06:03:02.997Z,10.57
2022-11-23T06:05:31.508Z,8.35
2022-11-23T06:07:58.888Z,8.80
2022-11-23T06:10:26.838Z,8.35
2022-11-23T06:12:55.630Z,11.25
2022-11-23T06:15:23.339Z,8.88
2022-11-23T06:17:51.328Z,9.35
2022-11-23T06:20:19.414Z,8.25
2022-11-23T06:22:53.293Z,12.88
2022-11-23T06:25:21.544Z,10.43
2022-11-23T06:27:56.806Z,7.50
2022-11-23T06:30:25.694Z,9.48
2022-11-23T06:32:53.260Z,11.98
2022-11-23T06:35:21.253Z,7.57
2022-11-23T06:37:50.961Z,8.82
2022-11-23T06:40:18.729Z,8.55
2022-11-23T06:42:46.202Z,11.12
2022-11-23T06:45:14.575Z,10.15
2022-11-23T06:47:43.840Z,12.68
2022-11-23T06:50:11.579Z,9.25
2022-11-23T06:52:39.464Z,8.50
2022-11-23T06:55:06.987Z,10.40
2022-11-23T06:57:34.860Z,10.65
2022-11-23T07:00:05.191Z,9.32
2022-11-23T07:02:33.134Z,11.32
2022-11-23T07:05:00.661Z,7.72
2022-11-23T07:07:28.733Z,9.13
2022-11-23T07:09:57.673Z,9.43
2022-11-23T07:12:26.957Z,8.13
2022-11-23T07:14:54.595Z,11.35
2022-11-23T07:17:21.940Z,9.25
2022-11-23T07:19:49.266Z,9.82
2022-11-23T07:22:17.212Z,12.27
2022-11-23T07:24:46.856Z,13.00
2022-11-23T07:27:16.984Z,9.50
2022-11-23T07:29:45.059Z,10.00
2022-11-23T07:32:15.148Z,9.15
2022-11-23T07:34:42.496Z,8.57
2022-11-23T07:37:10.436Z,9.32
2022-11-23T07:39:56.443Z,8.90
2022-11-23T07:42:36.854Z,8.30
2022-11-23T07:45:09.349Z,8.80
2022-11-23T07:47:37.500Z,7.78
2022-11-23T07:50:10.400Z,7.35
2022-11-23T07:52:38.289Z,8.38
2022-11-23T07:55:06.130Z,8.45
2022-11-23T07:57:33.515Z,9.68
2022-11-23T08:00:01.087Z,8.65
2022-11-23T08:02:28.490Z,6.47
2022-11-23T08:04:56.193Z,9.07
2022-11-23T08:07:23.552Z,8.27
2022-11-23T08:09:50.948Z,7.85
2022-11-23T08:12:18.556Z,6.80
2022-11-23T08:14:45.865Z,7.43
2022-11-23T08:17:13.238Z,7.55
2022-11-23T08:19:40.838Z,9.43
2022-11-23T08:22:08.194Z,7.05
2022-11-23T08:24:35.717Z,7.65
2022-11-23T08:27:03.492Z,6.65
2022-11-23T08:29:31.071Z,8.35
2022-11-23T08:31:58.669Z,10.48
2022-11-23T08:34:26.344Z,5.95
2022-11-23T08:36:53.682Z,7.65
2022-11-23T08:39:21.146Z,7.95
2022-11-23T08:41:48.824Z,8.70
2022-11-23T08:44:16.159Z,9.25
2022-11-23T08:46:43.500Z,6.25
2022-11-23T08:49:11.086Z,6.97
2022-11-23T08:51:38.406Z,8.52
2022-11-23T08:54:05.745Z,7.20
2022-11-23T08:56:33.330Z,6.90
2022-11-23T08:59:00.646Z,6.82
2022-11-23T09:01:28.084Z,6.60
2022-11-23T09:03:55.718Z,8.15
2022-11-23T09:06:28.977Z,6.82
2022-11-23T09:08:57.078Z,8.23
2022-11-23T09:11:25.637Z,8.10
2022-11-23T09:13:53.074Z,7.22
2022-11-23T09:16:20.946Z,8.50
2022-11-23T09:18:49.525Z,9.05
2022-11-23T09:21:16.944Z,9.05
2022-11-23T09:23:44.532Z,8.00
2022-11-23T09:26:11.850Z,6.85
2022-11-23T09:28:44.461Z,6.12
2022-11-23T09:31:12.806Z,8.05
2022-11-23T09:33:40.144Z,9.07
2022-11-23T09:36:07.753Z,7.37
2022-11-23T09:41:53.795Z,7.62
2022-11-23T09:44:43.856Z,12.18
2022-11-23T09:47:44.802Z,6.72
2022-11-23T09:50:22.418Z,7.32
2022-11-23T09:52:50.139Z,6.62
2022-11-23T09:55:39.514Z,5.90
2022-11-23T09:58:07.633Z,8.52
2022-11-23T10:00:43.872Z,7.12
2022-11-23T10:03:15.852Z,6.68
2022-11-23T10:05:50.768Z,7.85
2022-11-23T10:08:31.666Z,6.85
2022-11-23T10:11:24.280Z,7.70
2022-11-23T10:14:07.081Z,6.53
2022-11-23T10:16:43.950Z,6.62
2022-11-23T10:19:14.567Z,5.97
2022-11-23T10:22:04.903Z,5.55
2022-11-23T10:24:43.189Z,6.22
2022-11-23T10:27:15.756Z,5.95
2022-11-23T10:29:45.002Z,6.85
2022-11-23T10:32:33.384Z,7.55
2022-11-23T10:35:14.132Z,6.93
2022-11-23T10:37:41.776Z,7.87
2022-11-23T10:40:24.849Z,6.40
2022-11-23T10:42:56.429Z,7.30
2022-11-23T10:45:26.095Z,6.22
2022-11-23T10:47:55.857Z,5.97
2022-11-23T10:50:25.980Z,6.40
2022-11-23T10:52:59.799Z,7.12
2022-11-23T10:55:35.112Z,7.12
2022-11-23T10:58:02.782Z,7.03
2022-11-23T11:00:30.962Z,5.70
2022-11-23T11:02:59.763Z,7.22
2022-11-23T11:08:29.537Z,7.25
2022-11-23T11:10:58.229Z,5.62
2022-11-23T11:13:46.361Z,7.00
2022-11-23T11:16:33.459Z,7.25
2022-11-23T11:19:23.150Z,7.18
2022-11-23T11:21:50.746Z,5.25
2022-11-23T11:24:28.120Z,5.75
2022-11-23T11:27:01.593Z,8.48
2022-11-23T11:29:46.567Z,7.37
2022-11-23T11:34:53.512Z,6.47
2022-11-23T11:37:33.373Z,8.07
2022-11-23T11:40:04.057Z,7.82
2022-11-23T11:43:01.121Z,7.10
2022-11-23T11:45:31.897Z,9.20
2022-11-23T11:48:01.334Z,8.25
2022-11-23T11:50:43.130Z,7.62
2022-11-23T11:53:18.801Z,9.30
2022-11-23T11:55:48.509Z,9.75
2022-11-23T11:58:17.259Z,6.87
2022-11-23T12:00:46.928Z,7.87
2022-11-23T12:03:23.670Z,9.93
2022-11-23T12:05:56.040Z,7.75
2022-11-23T12:08:45.433Z,8.05
2022-11-23T12:11:13.375Z,9.07
2022-11-23T12:13:43.459Z,8.93
2022-11-23T12:16:24.105Z,15.77
2022-11-23T12:19:10.389Z,16.17
2022-11-23T12:21:37.680Z,11.93
2022-11-23T12:24:28.229Z,9.20
2022-11-23T12:27:12.366Z,9.68
2022-11-23T12:29:49.058Z,8.15
2022-11-23T12:32:33.369Z,8.35
2022-11-23T12:35:29.994Z,10.93
2022-11-23T12:38:15.659Z,10.77
2022-11-23T12:40:55.654Z,9.98
2022-11-23T12:43:28.980Z,9.75
2022-11-23T12:46:26.305Z,8.50
2022-11-23T12:49:05.670Z,9.82
2022-11-23T12:51:37.176Z,11.65
2022-11-23T12:54:27.692Z,11.38
2022-11-23T12:57:28.353Z,10.57
2022-11-23T13:00:17.910Z,9.82
2022-11-23T13:02:57.541Z,14.90
2022-11-23T13:05:56.912Z,12.00
2022-11-23T13:08:46.861Z,11.15
2022-11-23T13:11:36.830Z,10.85
2022-11-23T13:14:16.860Z,12.13
2022-11-23T13:16:44.302Z,11.43
2022-11-23T13:19:22.917Z,7.68
2022-11-23T13:21:50.563Z,7.60
2022-11-23T13:24:25.158Z,9.02
2022-11-23T13:27:14.172Z,8.55
2022-11-23T13:29:50.906Z,8.13
2022-11-23T13:32:39.671Z,10.45
2022-11-23T13:35:30.204Z,9.30
2022-11-23T13:37:57.444Z,9.65
2022-11-23T13:40:31.108Z,10.82
2022-11-23T13:43:01.609Z,12.45
2022-11-23T13:45:39.232Z,14.90
2022-11-23T13:48:09.630Z,11.93
2022-11-23T13:50:47.491Z,12.20
2022-11-23T13:53:21.835Z,8.85
2022-11-23T13:55:50.364Z,10.55
2022-11-23T13:58:23.730Z,8.73
2022-11-23T14:00:52.355Z,10.23
2022-11-23T14:04:05.487Z,8.85
2022-11-23T14:06:45.641Z,8.38
2022-11-23T14:09:41.258Z,11.40
2022-11-23T14:12:11.494Z,9.05
2022-11-23T14:15:16.588Z,9.32
2022-11-23T14:18:03.288Z,9.85
2022-11-23T14:20:40.250Z,9.75
2022-11-23T14:23:32.050Z,11.25
2022-11-23T14:26:30.927Z,9.23
2022-11-23T14:29:26.123Z,9.85
2022-11-23T14:32:19.637Z,10.25
2022-11-23T14:35:10.739Z,9.32
2022-11-23T14:37:47.190Z,8.25
2022-11-23T14:40:52.787Z,8.25
2022-11-23T14:43:21.255Z,8.50
2022-11-23T14:45:48.754Z,9.35
2022-11-23T14:48:33.420Z,13.88
2022-11-23T14:51:03.664Z,16.10
2022-11-23T14:53:47.236Z,13.88
2022-11-23T14:56:34.396Z,32.13
2022-11-23T14:59:07.677Z,25.02
2022-11-23T15:01:36.531Z,12.65
2022-11-23T15:04:23.184Z,15.10
2022-11-23T15:06:53.506Z,23.08
2022-11-23T15:09:46.748Z,12.57
2022-11-23T15:12:25.925Z,10.25
2022-11-23T15:14:57.240Z,8.70
2022-11-23T15:17:25.330Z,9.73
2022-11-23T15:19:58.291Z,18.27
2022-11-23T15:22:27.264Z,10.05
2022-11-23T15:24:55.402Z,15.45
2022-11-23T15:27:29.508Z,19.83
2022-11-23T15:29:59.432Z,23.87
2022-11-23T15:32:33.355Z,12.23
2022-11-23T15:35:07.076Z,12.85
2022-11-23T15:37:42.812Z,14.00
2022-11-23T15:40:18.217Z,14.50
2022-11-23T15:42:47.286Z,14.02
2022-11-23T15:45:38.099Z,16.25
2022-11-23T15:48:16.456Z,17.83
2022-11-23T15:50:51.218Z,13.45
2022-11-23T15:53:19.641Z,13.57
2022-11-23T15:55:47.533Z,17.92
2022-11-23T15:58:18.787Z,17.98
2022-11-23T16:00:56.768Z,21.17
2022-11-23T16:03:24.270Z,26.20
2022-11-23T16:06:13.762Z,17.90
2022-11-23T16:08:41.696Z,21.60
2022-11-23T16:11:22.827Z,16.80
2022-11-23T16:13:50.501Z,12.45
2022-11-23T16:16:21.426Z,13.95
2022-11-23T16:18:52.501Z,15.23
2022-11-23T16:21:20.558Z,16.45
2022-11-23T16:23:52.427Z,14.75
2022-11-23T16:26:21.049Z,17.73
2022-11-23T16:28:49.726Z,18.23
2022-11-23T16:31:31.680Z,19.70
2022-11-23T16:33:59.423Z,19.80
2022-11-23T16:36:28.052Z,21.15
2022-11-23T16:38:57.615Z,20.92
2022-11-23T16:41:27.847Z,21.15
2022-11-23T16:43:55.342Z,19.98
2022-11-23T16:46:24.432Z,25.08
2022-11-23T16:48:54.326Z,20.52
2022-11-23T16:51:22.080Z,22.27
2022-11-23T16:56:39.140Z,22.25
2022-11-23T16:59:06.827Z,22.40
2022-11-23T17:01:35.733Z,21.35
2022-11-23T17:04:03.901Z,19.58
2022-11-23T17:06:31.834Z,18.48
2022-11-23T17:09:07.461Z,21.80
2022-11-23T17:11:40.092Z,20.58
2022-11-23T17:14:16.342Z,19.25
2022-11-23T17:16:46.661Z,21.67
2022-11-23T17:19:16.388Z,21.33
2022-11-23T17:21:44.789Z,18.80
2022-11-23T17:24:14.232Z,23.40
2022-11-23T17:26:44.557Z,18.58
2022-11-23T17:29:19.586Z,21.20
2022-11-23T17:31:50.337Z,25.12
2022-11-23T17:34:18.842Z,19.27
2022-11-23T17:36:47.304Z,20.15
2022-11-23T17:39:21.943Z,17.87
2022-11-23T17:44:18.155Z,17.00
2022-11-23T17:46:50.763Z,19.05
2022-11-23T17:49:20.387Z,17.37
2022-11-23T17:51:48.376Z,16.08
2022-11-23T17:54:16.380Z,17.70
2022-11-23T17:56:45.204Z,17.55
2022-11-23T17:59:13.796Z,19.83
2022-11-23T18:01:41.832Z,17.87
2022-11-23T18:04:10.442Z,16.75
2022-11-23T18:06:38.873Z,16.20
2022-11-23T18:09:07.088Z,28.25
2022-11-23T18:11:35.280Z,23.20
2022-11-23T18:14:04.002Z,69.50
2022-11-23T18:16:31.931Z,31.33
2022-11-23T18:19:02.828Z,22.48
2022-11-23T18:21:31.509Z,33.45
2022-11-23T18:24:04.249Z,78.85
2022-11-23T18:26:32.888Z,26.40
2022-11-23T18:29:00.872Z,40.80
2022-11-23T18:31:29.312Z,40.47
2022-11-23T18:33:57.594Z,36.53
2022-11-23T18:36:25.600Z,35.65
2022-11-23T18:38:53.070Z,25.12
2022-11-23T18:41:22.652Z,48.08
2022-11-23T18:43:50.814Z,33.22
2022-11-23T18:46:21.751Z,37.42
2022-11-23T18:48:50.728Z,68.25
2022-11-23T18:51:19.043Z,57.47
2022-11-23T18:53:48.231Z,32.67
2022-11-23T18:56:18.153Z,142.68
2022-11-23T18:58:46.981Z,29.85
2022-11-23T19:01:20.307Z,26.52
2022-11-23T19:03:51.057Z,19.35
2022-11-23T19:06:21.174Z,18.00
2022-11-23T19:08:57.427Z,18.40
2022-11-23T19:13:56.972Z,20.42
2022-11-23T19:16:27.636Z,15.52
2022-11-23T19:19:00.692Z,15.70
2022-11-23T19:21:30.725Z,18.00
2022-11-23T19:23:59.553Z,16.83
2022-11-23T19:26:29.402Z,17.27
2022-11-23T19:28:58.754Z,16.60
2022-11-23T19:31:29.847Z,15.52
2022-11-23T19:36:46.724Z,12.85
2022-11-23T19:39:14.608Z,16.10
2022-11-23T19:41:42.628Z,19.12
2022-11-23T19:44:11.343Z,12.48
2022-11-23T19:46:40.133Z,16.80
2022-11-23T19:49:08.948Z,14.05
2022-11-23T19:51:37.167Z,13.38
2022-11-23T19:54:06.575Z,13.88
2022-11-23T19:56:37.594Z,13.30
2022-11-23T19:59:05.952Z,14.02
2022-11-23T20:01:34.012Z,12.98
2022-11-23T20:04:09.149Z,14.07
2022-11-23T20:06:42.649Z,13.93
2022-11-23T20:09:13.323Z,22.83
2022-11-23T20:11:40.894Z,17.65
2022-11-23T20:14:11.118Z,21.10
2022-11-23T20:16:39.417Z,20.58
2022-11-23T20:19:08.726Z,15.57
2022-11-23T20:21:37.667Z,16.70
2022-11-23T20:24:08.749Z,18.08
2022-11-23T20:26:37.009Z,20.30
2022-11-23T20:29:07.290Z,19.08
2022-11-23T20:31:35.928Z,17.52
2022-11-23T20:34:07.603Z,15.80
2022-11-23T20:36:38.311Z,18.90
2022-11-23T20:39:07.730Z,17.75
2022-11-23T20:41:36.478Z,18.95
2022-11-23T20:44:11.623Z,16.87
2022-11-23T20:49:30.537Z,20.88
2022-11-23T20:51:59.308Z,20.55
2022-11-23T20:54:28.422Z,20.90
2022-11-23T20:56:58.515Z,23.58
2022-11-23T20:59:26.717Z,21.37
2022-11-23T21:01:55.115Z,20.23
2022-11-23T21:04:22.909Z,21.02
2022-11-23T21:06:50.890Z,21.45
2022-11-23T21:09:18.635Z,21.37
2022-11-23T21:12:04.785Z,20.05
2022-11-23T21:14:33.825Z,21.05
2022-11-23T21:17:02.722Z,20.77
2022-11-23T21:19:32.185Z,21.73
2022-11-23T21:22:03.974Z,21.65
2022-11-23T21:24:31.637Z,23.27
2022-11-23T21:26:59.694Z,22.58
2022-11-23T21:29:27.678Z,21.58
2022-11-23T21:31:54.997Z,19.77
2022-11-23T21:34:25.921Z,22.40
2022-11-23T21:36:54.402Z,23.55
2022-11-23T21:39:23.099Z,23.67
2022-11-23T21:41:52.422Z,21.73
2022-11-23T21:44:19.974Z,22.60
2022-11-23T21:46:47.372Z,22.23
2022-11-23T21:49:14.985Z,24.20
2022-11-23T21:51:43.635Z,22.62
2022-11-23T21:54:14.213Z,21.70
2022-11-23T21:56:43.030Z,21.75
2022-11-23T21:59:11.170Z,22.13
2022-11-23T22:01:39.427Z,24.33
2022-11-23T22:04:09.946Z,21.55
2022-11-23T22:06:38.371Z,20.65
2022-11-23T22:09:09.244Z,19.37
2022-11-23T22:11:40.296Z,19.50
2022-11-23T22:14:12.868Z,19.20
2022-11-23T22:16:46.061Z,16.42
2022-11-23T22:19:14.912Z,19.87
2022-11-23T22:21:46.240Z,18.17
2022-11-23T22:24:18.341Z,18.05
2022-11-23T22:26:47.681Z,21.08
2022-11-23T22:29:15.797Z,19.98
2022-11-23T22:31:43.798Z,18.23
2022-11-23T22:34:12.892Z,18.45
2022-11-23T22:36:40.539Z,20.20
2022-11-23T22:39:08.241Z,20.50
2022-11-23T22:41:37.536Z,20.70
2022-11-23T22:44:09.787Z,24.23
2022-11-23T22:46:38.540Z,22.45
2022-11-23T22:49:06.063Z,25.50
2022-11-23T22:51:33.976Z,25.85
2022-11-23T22:54:02.196Z,24.83
2022-11-23T22:56:30.840Z,25.33
2022-11-23T22:58:58.867Z,25.62
2022-11-23T23:01:29.114Z,29.98
2022-11-23T23:03:58.914Z,30.70
2022-11-23T23:06:29.317Z,30.17
2022-11-23T23:08:58.968Z,28.50
2022-11-23T23:11:28.666Z,28.08
2022-11-23T23:13:56.189Z,31.42
2022-11-23T23:16:23.908Z,26.00
2022-11-23T23:18:51.646Z,28.17
2022-11-23T23:21:21.416Z,29.87
2022-11-23T23:23:50.742Z,29.00
2022-11-23T23:26:21.122Z,31.98
2022-11-23T23:28:48.670Z,28.20
2022-11-23T23:31:16.998Z,28.55
2022-11-23T23:33:45.827Z,28.58
2022-11-23T23:36:17.474Z,29.65
2022-11-23T23:38:45.516Z,29.67
2022-11-23T23:41:14.081Z,29.73
2022-11-23T23:43:42.380Z,30.33
2022-11-23T23:46:12.008Z,37.00
2022-11-23T23:48:40.414Z,32.88
2022-11-23T23:51:16.499Z,36.20
2022-11-23T23:53:45.129Z,36.58
2022-11-23T23:56:15.106Z,36.13
2022-11-23T23:58:43.930Z,41.65
